Time;durP1;ratioP1;P1;durP2;ratioP2;P2;SDS_P1;SDS_P2;PMS_P1;PMS_P2;Temp;Humidity;BMP_temperature;BMP_pressure;BME280_temperature;BME280_humidity;BME280_pressure;Samples;Min_cycle;Max_cycle;Signal;HPM_P1;HPM_P2
2022/05/13 00:01:54;;;;;;;13.73;8.35;;;;;;;12.91;53.82;100567.91;8763329;33;20144;-72
2022/05/13 00:06:57;;;;;;;8.55;7.63;;;;;;;12.87;54.44;100567.34;8772999;33;20234;-71
2022/05/13 00:12:00;;;;;;;10.07;7.28;;;;;;;12.88;53.62;100562.78;8784926;33;20332;-72
2022/05/13 00:17:06;;;;;;;9.18;7.13;;;;;;;12.84;53.87;100559.53;8796011;33;20453;-72
2022/05/13 00:22:08;;;;;;;11.75;8.43;;;;;;;13.00;53.96;100562.56;8806582;33;20494;-72
2022/05/13 00:27:11;;;;;;;10.15;7.68;;;;;;;12.79;54.49;100561.75;8801303;33;20547;-72
2022/05/13 00:32:16;;;;;;;11.93;7.88;;;;;;;12.57;56.64;100565.47;8789348;33;20147;-72
2022/05/13 00:37:19;;;;;;;9.60;7.70;;;;;;;12.57;55.58;100562.78;8778026;33;20143;-72
2022/05/13 00:42:27;;;;;;;11.32;8.52;;;;;;;12.49;55.51;100554.50;8766611;33;20255;-72
2022/05/13 00:47:32;;;;;;;10.00;7.53;;;;;;;12.70;55.02;100547.25;8756505;33;20152;-72
2022/05/13 00:52:35;;;;;;;10.18;6.65;;;;;;;12.72;54.16;100544.41;8754444;33;20187;-72
2022/05/13 00:57:39;;;;;;;9.18;7.05;;;;;;;12.61;54.20;100539.94;8794121;33;20183;-72
2022/05/13 01:02:45;;;;;;;7.95;6.63;;;;;;;12.67;54.00;100539.44;8773882;33;20250;-72
2022/05/13 01:07:50;;;;;;;8.32;6.25;;;;;;;12.91;53.68;100532.88;8787377;33;20562;-72
2022/05/13 01:12:58;;;;;;;7.95;6.15;;;;;;;12.89;52.78;100532.13;8778453;33;21020;-72
2022/05/13 01:18:09;;;;;;;11.20;6.72;;;;;;;12.67;53.41;100533.16;8751426;33;20915;-72
2022/05/13 01:23:23;;;;;;;8.02;5.57;;;;;;;12.55;53.40;100527.88;8779113;33;20159;-72
2022/05/13 01:28:30;;;;;;;6.93;5.35;;;;;;;12.59;53.23;100523.09;8781890;33;20228;-72
2022/05/13 01:33:33;;;;;;;5.88;5.05;;;;;;;12.76;52.81;100519.75;8781943;33;20189;-72
2022/05/13 01:38:40;;;;;;;7.93;5.25;;;;;;;12.81;52.98;100516.66;8795025;33;20923;-72
2022/05/13 01:43:46;;;;;;;10.25;5.70;;;;;;;12.83;54.39;100510.16;8805149;33;20711;-72
2022/05/13 01:48:49;;;;;;;7.68;5.90;;;;;;;12.86;54.63;100516.22;8798262;33;20258;-72
2022/05/13 01:53:53;;;;;;;7.90;5.65;;;;;;;12.74;54.66;100516.34;8785091;33;20522;-72
2022/05/13 01:58:56;;;;;;;7.97;6.05;;;;;;;12.58;55.05;100518.66;8775251;33;20265;-72
2022/05/13 02:04:00;;;;;;;7.60;6.00;;;;;;;12.37;54.99;100519.56;8765251;33;20197;-71
2022/05/13 02:09:05;;;;;;;8.38;6.00;;;;;;;12.23;55.38;100516.31;8748868;33;20257;-72
2022/05/13 02:14:08;;;;;;;7.10;5.70;;;;;;;12.13;55.66;100510.88;8754241;33;20315;-72
2022/05/13 02:19:12;;;;;;;7.47;5.80;;;;;;;12.16;55.38;100519.53;8764836;33;20508;-71
2022/05/13 02:24:17;;;;;;;7.90;5.75;;;;;;;12.23;55.51;100519.88;8777087;33;20155;-71
2022/05/13 02:29:20;;;;;;;10.05;7.10;;;;;;;12.13;55.88;100522.50;8787015;33;20261;-72
2022/05/13 02:34:23;;;;;;;12.13;6.47;;;;;;;11.93;56.95;100529.56;8801810;33;20241;-71
2022/05/13 02:39:27;;;;;;;11.05;6.97;;;;;;;11.76;57.85;100529.28;8808646;33;20190;-71
2022/05/13 02:44:30;;;;;;;9.02;6.70;;;;;;;11.67;58.47;100531.75;8799089;33;20610;-71
2022/05/13 02:49:33;;;;;;;9.25;7.30;;;;;;;11.56;59.00;100528.25;8786937;33;20143;-71
2022/05/13 02:54:38;;;;;;;9.15;7.28;;;;;;;11.45;59.39;100521.91;8775931;33;20154;-71
2022/05/13 02:59:41;;;;;;;11.68;7.68;;;;;;;11.42;59.57;100522.19;8764435;33;20148;-71
2022/05/13 03:04:44;;;;;;;11.82;7.88;;;;;;;11.26;60.06;100517.19;8807045;33;20132;-71
2022/05/13 03:09:49;;;;;;;12.57;7.80;;;;;;;11.14;60.38;100531.66;8801261;33;20186;-72
2022/05/13 03:14:52;;;;;;;11.88;7.95;;;;;;;11.08;60.75;100525.88;8790616;33;20151;-72
2022/05/13 03:19:55;;;;;;;12.43;8.63;;;;;;;11.05;60.91;100518.91;8778611;33;20140;-72
2022/05/13 03:25:00;;;;;;;16.48;9.00;;;;;;;10.96;61.20;100522.34;8767695;33;20241;-71
2022/05/13 03:30:06;;;;;;;16.95;9.70;;;;;;;10.91;61.25;100525.41;8732085;27;20193;-72
2022/05/13 03:35:13;;;;;;;13.88;9.50;;;;;;;10.80;61.81;100526.25;8680567;33;20628;-72
2022/05/13 03:40:18;;;;;;;13.50;9.98;;;;;;;10.79;61.60;100526.38;8679914;33;20157;-72
2022/05/13 03:45:21;;;;;;;14.68;9.70;;;;;;;10.76;61.51;100523.94;8667512;33;20226;-72
2022/05/13 03:50:24;;;;;;;15.05;9.52;;;;;;;10.71;61.59;100518.94;8673003;33;20153;-72
2022/05/13 03:55:29;;;;;;;12.30;9.70;;;;;;;10.65;61.86;100514.06;8686726;33;20685;-73
2022/05/13 04:00:34;;;;;;;16.95;8.85;;;;;;;10.66;61.63;100514.91;8690781;33;21510;-72
2022/05/13 04:10:59;;;;;;;12.13;9.23;;;;;;;10.57;61.89;100514.66;8671956;33;20141;-72
2022/05/13 04:16:05;;;;;;;14.30;9.23;;;;;;;10.68;61.81;100521.88;8658317;33;20156;-72
2022/05/13 04:21:12;;;;;;;13.05;8.70;;;;;;;10.71;61.59;100515.41;8647624;33;20185;-73
2022/05/13 04:26:17;;;;;;;14.25;9.65;;;;;;;10.77;61.70;100514.91;8674061;33;20302;-73
2022/05/13 04:31:23;;;;;;;13.18;8.85;;;;;;;10.74;62.08;100526.75;8679718;33;20653;-72
2022/05/13 04:36:26;;;;;;;12.18;8.00;;;;;;;10.51;62.92;100525.03;8659344;33;20156;-72
2022/05/13 04:46:51;;;;;;;14.55;7.38;;;;;;;10.22;62.52;100536.19;8649801;33;20391;-72
2022/05/13 04:51:55;;;;;;;8.55;5.72;;;;;;;10.45;61.88;100517.44;8639277;33;20295;-73
2022/05/13 04:57:00;;;;;;;8.43;5.45;;;;;;;10.47;61.17;100518.19;8642815;33;20689;-72
2022/05/13 05:02:03;;;;;;;8.88;5.32;;;;;;;10.75;60.31;100520.41;8654522;33;20261;-72
2022/05/13 05:07:06;;;;;;;8.48;4.55;;;;;;;10.75;59.91;100522.22;8663137;33;20571;-72
2022/05/13 05:12:12;;;;;;;6.90;4.40;;;;;;;10.77;60.04;100521.13;8652694;33;20607;-72
2022/05/13 05:17:15;;;;;;;8.43;5.10;;;;;;;10.73;60.87;100532.25;8641379;33;20694;-72
2022/05/13 05:22:18;;;;;;;6.78;4.15;;;;;;;10.57;61.47;100535.28;8640001;33;20553;-72
2022/05/13 05:27:22;;;;;;;9.98;4.40;;;;;;;10.64;62.09;100554.47;8650487;33;20238;-71
2022/05/13 05:32:25;;;;;;;6.70;4.38;;;;;;;10.54;62.17;100565.09;8660873;33;20539;-72
2022/05/13 05:37:34;;;;;;;7.85;3.65;;;;;;;10.76;62.28;100575.00;8659204;33;20172;-72
2022/05/13 05:42:39;;;;;;;6.70;3.67;;;;;;;10.99;60.81;100563.25;8644952;33;20859;-72
2022/05/13 05:47:42;;;;;;;8.35;4.00;;;;;;;10.72;61.89;100565.47;8636734;33;20509;-72
2022/05/13 05:52:46;;;;;;;6.05;4.00;;;;;;;11.06;61.40;100577.09;8646329;33;20152;-72
2022/05/13 05:58:04;;;;;;;4.68;3.00;;;;;;;11.15;61.39;100589.81;8656078;33;20451;-72
2022/05/13 06:03:07;;;;;;;6.05;3.53;;;;;;;11.03;60.52;100582.72;8668400;33;20192;-72
2022/05/13 06:08:10;;;;;;;6.22;3.25;;;;;;;11.32;60.43;100587.59;8682449;33;20532;-72
2022/05/13 06:13:15;;;;;;;6.63;3.40;;;;;;;11.03;59.91;100599.69;8694661;33;20152;-72
2022/05/13 06:18:18;;;;;;;4.85;3.05;;;;;;;10.91;59.74;100611.41;8649930;33;20259;-72
2022/05/13 06:23:21;;;;;;;6.43;3.25;;;;;;;10.96;59.67;100597.59;8659717;33;20345;-72
2022/05/13 06:28:26;;;;;;;8.95;2.80;;;;;;;10.96;60.27;100603.84;8669774;33;20490;-72
2022/05/13 06:33:29;;;;;;;4.07;2.50;;;;;;;10.65;59.70;100607.22;8659298;33;20153;-72
2022/05/13 06:38:32;;;;;;;9.38;3.53;;;;;;;11.03;59.79;100606.91;8643450;33;21383;-72
2022/05/13 06:43:37;;;;;;;7.63;2.60;;;;;;;10.67;60.69;100608.81;8644215;33;20255;-72
2022/05/13 06:48:40;;;;;;;4.32;2.25;;;;;;;10.67;60.53;100619.56;8678383;33;20163;-72
2022/05/13 06:53:43;;;;;;;8.90;3.30;;;;;;;10.60;61.13;100621.88;8675206;33;20475;-72
2022/05/13 06:58:48;;;;;;;7.38;2.67;;;;;;;10.61;61.75;100625.41;8657630;33;20567;-72
2022/05/13 07:03:51;;;;;;;5.68;2.78;;;;;;;10.61;62.15;100638.81;8648019;33;20244;-72
2022/05/13 07:08:54;;;;;;;10.02;3.40;;;;;;;10.52;63.63;100651.16;8637795;34;20737;-72
2022/05/13 07:13:58;;;;;;;10.30;4.28;;;;;;;10.68;63.71;100660.72;8664522;33;20160;-72
2022/05/13 07:19:01;;;;;;;9.10;4.53;;;;;;;11.00;63.18;100644.78;8666100;33;20295;-72
2022/05/13 07:24:06;;;;;;;6.70;3.50;;;;;;;10.89;63.06;100634.88;8638179;34;20529;-72
2022/05/13 07:29:10;;;;;;;12.23;5.55;;;;;;;11.20;63.59;100641.38;8650111;33;20244;-72
2022/05/13 07:34:13;;;;;;;15.15;5.38;;;;;;;11.40;63.07;100655.06;8678129;33;20236;-72
2022/05/13 07:44:38;;;;;;;13.10;6.25;;;;;;;11.16;64.45;100661.44;8646387;33;20670;-72
2022/05/13 07:49:42;;;;;;;11.20;6.28;;;;;;;11.48;62.82;100663.38;8668337;33;20280;-72
2022/05/13 07:54:46;;;;;;;11.25;5.80;;;;;;;11.35;63.36;100668.03;8678565;33;20153;-72
2022/05/13 08:05:18;;;;;;;13.13;5.72;;;;;;;12.19;62.38;100665.69;8652011;33;20155;-71
2022/05/13 08:10:21;;;;;;;13.93;6.30;;;;;;;12.68;60.16;100659.72;8677498;33;20669;-72
2022/05/13 08:15:26;;;;;;;6.20;4.25;;;;;;;12.49;58.97;100664.97;8666160;33;20203;-72
2022/05/13 08:20:30;;;;;;;9.57;4.90;;;;;;;13.73;57.22;100654.13;8655014;33;20247;-72
2022/05/13 08:25:34;;;;;;;10.05;4.40;;;;;;;13.57;56.13;100653.81;8644616;33;20154;-72
2022/05/13 08:30:39;;;;;;;9.35;4.82;;;;;;;14.12;55.82;100663.19;8636823;33;20596;-72
2022/05/13 08:35:46;;;;;;;9.55;4.50;;;;;;;14.22;53.85;100668.56;8680590;33;20305;-72
2022/05/13 08:41:14;;;;;;;7.82;4.35;;;;;;;14.02;55.02;100664.16;8669630;33;20954;-72
2022/05/13 08:46:33;;;;;;;7.68;4.03;;;;;;;14.44;53.98;100662.06;8636802;34;20181;-71
2022/05/13 08:51:52;;;;;;;8.75;4.93;;;;;;;14.23;53.58;100654.06;8637158;34;20380;-71
2022/05/13 08:57:01;;;;;;;10.18;4.43;;;;;;;14.26;53.92;100659.22;8648637;33;20593;-71
2022/05/13 09:02:12;;;;;;;7.38;4.93;;;;;;;15.64;50.79;100675.88;8665620;33;20247;-72
2022/05/13 09:07:19;;;;;;;6.13;4.00;;;;;;;15.70;52.43;100658.16;8662561;33;20170;-72
2022/05/13 09:12:29;;;;;;;9.57;4.00;;;;;;;15.90;49.85;100658.91;8691917;33;20149;-72
2022/05/13 09:17:38;;;;;;;8.98;3.60;;;;;;;14.21;51.12;100682.25;8678696;33;20975;-72
2022/05/13 09:22:44;;;;;;;7.32;3.78;;;;;;;14.93;50.53;100665.56;8648878;33;20181;-72
2022/05/13 09:27:50;;;;;;;6.47;3.65;;;;;;;14.40;51.63;100666.06;8667449;33;20152;-72
2022/05/13 09:32:55;;;;;;;7.10;3.28;;;;;;;14.33;51.16;100664.88;8648949;33;20595;-72
2022/05/13 09:37:58;;;;;;;5.68;2.92;;;;;;;14.66;49.32;100668.16;8657417;33;20141;-72
2022/05/13 09:43:01;;;;;;;5.65;2.72;;;;;;;14.60;50.31;100653.38;8686001;33;20140;-73
2022/05/13 09:48:17;;;;;;;3.22;2.63;;;;;;;14.64;51.58;100664.75;8657874;33;20156;-72
2022/05/13 09:53:34;;;;;;;4.50;3.03;;;;;;;14.20;52.49;100673.25;8648107;33;20160;-71
2022/05/13 09:58:54;;;;;;;6.63;2.90;;;;;;;14.16;51.58;100675.41;8664824;33;20657;-71
2022/05/13 10:04:10;;;;;;;7.00;2.67;;;;;;;14.55;51.55;100675.44;8635925;34;20548;-72
2022/05/13 10:14:48;;;;;;;6.63;2.80;;;;;;;14.98;49.98;100663.28;8635418;34;20642;-71
2022/05/13 10:19:58;;;;;;;8.02;2.90;;;;;;;14.53;51.11;100679.28;8634325;34;20239;-71
2022/05/13 10:25:06;;;;;;;5.55;2.80;;;;;;;14.71;49.82;100672.16;8653188;33;20172;-72
2022/05/13 10:30:16;;;;;;;4.97;2.93;;;;;;;15.55;49.41;100676.78;8667600;33;20435;-72
2022/05/13 10:35:25;;;;;;;4.18;2.30;;;;;;;15.88;48.52;100682.59;8635564;34;20142;-73
2022/05/13 10:40:35;;;;;;;5.38;2.40;;;;;;;16.84;45.06;100679.28;8622752;34;20558;-72
2022/05/13 10:45:41;;;;;;;8.70;3.40;;;;;;;15.46;47.80;100673.09;8652447;33;20152;-72
2022/05/13 10:51:00;;;;;;;6.95;3.22;;;;;;;15.25;49.54;100689.53;8671529;33;20166;-72
2022/05/13 10:56:13;;;;;;;6.68;2.63;;;;;;;15.08;48.89;100678.63;8635970;33;20377;-72
2022/05/13 11:01:38;;;;;;;7.20;2.70;;;;;;;15.39;47.26;100677.41;8639172;34;20262;-72
2022/05/13 11:07:01;;;;;;;3.95;2.67;;;;;;;15.10;48.11;100684.75;8669745;33;20684;-72
2022/05/13 11:12:16;;;;;;;4.00;3.03;;;;;;;14.57;48.66;100695.06;8639558;34;20138;-72
2022/05/13 11:17:34;;;;;;;4.97;3.20;;;;;;;14.86;47.80;100690.63;8638629;34;20141;-72
2022/05/13 11:22:44;;;;;;;5.68;3.55;;;;;;;16.01;45.66;100688.47;8652864;33;20174;-72
2022/05/13 11:28:00;;;;;;;4.45;2.88;;;;;;;15.45;47.93;100706.59;8638162;34;20215;-72
2022/05/13 11:33:20;;;;;;;3.88;3.00;;;;;;;14.66;48.82;100701.47;8676538;33;20192;-72
2022/05/13 11:38:45;;;;;;;5.20;3.25;;;;;;;14.65;49.31;100702.47;8682448;33;20690;-72
2022/05/13 11:43:55;;;;;;;5.72;3.47;;;;;;;16.28;47.60;100703.03;8638291;34;20145;-72
2022/05/13 11:49:09;;;;;;;6.28;3.67;;;;;;;17.14;44.55;100696.97;8638104;34;20204;-72
2022/05/13 11:54:22;;;;;;;5.90;4.25;;;;;;;16.56;46.01;100693.81;8660262;33;20148;-72
2022/05/13 11:59:46;;;;;;;6.03;3.42;;;;;;;15.30;49.05;100715.28;8662469;33;20151;-72
2022/05/13 12:05:10;;;;;;;6.03;3.15;;;;;;;15.74;49.13;100715.59;8671479;33;20507;-72
2022/05/13 12:10:15;;;;;;;5.38;3.47;;;;;;;15.96;46.28;100720.59;8613775;34;20231;-72
2022/05/13 12:15:40;;;;;;;8.02;4.75;;;;;;;16.13;47.87;100737.91;8637522;34;21010;-72
2022/05/13 12:20:53;;;;;;;8.43;5.45;;;;;;;16.68;46.75;100716.13;8637381;34;20150;-72
2022/05/13 12:26:01;;;;;;;7.38;5.38;;;;;;;16.59;45.85;100714.31;8642339;33;20146;-72
2022/05/13 12:31:34;;;;;;;9.23;5.60;;;;;;;17.53;44.52;100700.13;8670674;33;20211;-72
2022/05/13 12:42:13;;;;;;;7.70;5.35;;;;;;;16.63;46.02;100682.34;8661837;33;20142;-72
2022/05/13 12:47:23;;;;;;;6.72;5.68;;;;;;;17.25;45.92;100699.44;8662372;33;20203;-72
2022/05/13 12:52:40;;;;;;;10.10;4.80;;;;;;;17.78;43.48;100706.50;8655071;33;20141;-72
2022/05/13 12:57:48;;;;;;;8.40;5.13;;;;;;;19.32;42.20;100692.41;8635708;34;20295;-72
2022/05/13 13:02:56;;;;;;;7.75;5.40;;;;;;;18.69;42.66;100711.16;8639761;33;20461;-72
2022/05/13 13:08:15;;;;;;;8.57;5.75;;;;;;;17.28;44.15;100712.72;8635723;34;20448;-72
2022/05/13 13:13:28;;;;;;;5.50;4.93;;;;;;;16.86;45.39;100716.09;8635980;34;20251;-72
2022/05/13 13:18:34;;;;;;;6.80;6.18;;;;;;;17.06;46.16;100713.19;8635021;34;20481;-72
2022/05/13 13:23:42;;;;;;;7.15;5.47;;;;;;;17.11;46.11;100711.69;8635714;34;20240;-72
2022/05/13 13:28:53;;;;;;;8.70;5.40;;;;;;;16.51;46.50;100707.00;8635216;34;20154;-72
2022/05/13 13:33:58;;;;;;;9.02;5.78;;;;;;;16.14;47.26;100718.78;8671690;33;20231;-71
2022/05/13 13:39:02;;;;;;;7.18;6.05;;;;;;;17.87;44.68;100710.09;8687947;33;20145;-73
2022/05/13 13:44:08;;;;;;;9.45;6.38;;;;;;;18.67;42.77;100683.25;8685301;33;20553;-72
2022/05/13 13:49:21;;;;;;;9.13;5.53;;;;;;;17.85;nan;100688.53;8681735;33;20192;-72
2022/05/13 13:54:33;;;;;;;9.32;6.05;;;;;;;18.48;42.67;100697.19;8682863;33;20195;-72
2022/05/13 13:59:47;;;;;;;7.75;5.53;;;;;;;18.13;42.53;100686.44;8681958;33;20752;-72
2022/05/13 14:04:50;;;;;;;7.53;5.57;;;;;;;18.71;42.84;100694.66;8698844;28;20250;-78
2022/05/13 14:09:54;;;;;;;6.40;5.80;;;;;;;18.13;42.47;100699.19;8747603;33;20199;-76
2022/05/13 14:15:03;;;;;;;9.15;5.13;;;;;;;17.70;43.61;100684.75;8738450;33;20252;-77
2022/05/13 14:20:13;;;;;;;7.60;4.78;;;;;;;17.90;43.17;100688.03;8710686;33;20180;-77
2022/05/13 14:25:16;;;;;;;5.60;4.63;;;;;;;18.35;42.22;100692.25;8744429;33;20255;-77
2022/05/13 14:30:20;;;;;;;6.55;4.63;;;;;;;18.34;43.22;100682.38;8721233;33;20268;-77
2022/05/13 14:35:30;;;;;;;8.95;4.93;;;;;;;18.45;42.56;100695.66;8732306;33;20242;-78
2022/05/13 14:40:39;;;;;;;5.28;4.65;;;;;;;17.56;44.54;100690.78;8697373;33;20171;-76
2022/05/13 14:45:45;;;;;;;5.43;4.53;;;;;;;18.89;42.41;100680.88;8677374;33;20214;-77
2022/05/13 14:50:59;;;;;;;6.57;4.88;;;;;;;18.89;42.25;100681.72;8722113;33;20152;-77
2022/05/13 14:56:03;;;;;;;8.50;5.18;;;;;;;19.27;42.46;100684.75;8736171;33;20525;-76
2022/05/13 15:01:17;;;;;;;12.77;5.40;;;;;;;18.77;42.43;100689.38;8724868;33;20222;-77
2022/05/13 15:06:34;;;;;;;6.63;5.00;;;;;;;17.81;44.76;100692.59;8712224;33;20129;-77
2022/05/13 15:11:38;;;;;;;6.80;4.27;;;;;;;18.50;43.37;100687.00;8746905;33;20645;-77
2022/05/13 15:16:43;;;;;;;7.35;4.57;;;;;;;18.79;42.53;100681.09;8741557;33;20165;-77
2022/05/13 15:21:47;;;;;;;8.68;5.05;;;;;;;17.64;43.62;100688.13;8751922;33;20159;-77
2022/05/13 15:26:51;;;;;;;7.65;4.78;;;;;;;17.67;44.74;100682.34;8745210;33;20147;-77
2022/05/13 15:31:55;;;;;;;6.47;4.15;;;;;;;17.61;44.35;100702.88;8748315;33;20217;-77
2022/05/13 15:36:58;;;;;;;7.65;4.00;;;;;;;17.61;45.08;100689.28;8735533;33;20230;-79
2022/05/13 15:42:05;;;;;;;7.75;4.25;;;;;;;16.80;45.40;100682.31;8723000;33;20506;-77
2022/05/13 15:47:17;;;;;;;5.45;3.15;;;;;;;17.51;43.28;100696.69;8735759;33;20658;-77
2022/05/13 15:52:43;;;;;;;4.22;3.15;;;;;;;17.40;43.51;100699.69;8681215;33;20624;-77
2022/05/13 15:57:51;;;;;;;4.35;3.40;;;;;;;18.39;43.09;100700.91;8744443;33;20155;-77
2022/05/13 16:02:58;;;;;;;6.40;4.20;;;;;;;17.99;42.77;100697.97;8737936;33;20248;-76
2022/05/13 16:08:01;;;;;;;8.43;3.83;;;;;;;17.38;45.05;100704.44;8716923;33;20447;-75
2022/05/13 16:13:11;;;;;;;6.78;4.13;;;;;;;17.02;45.60;100715.38;8728061;33;20557;-76
2022/05/13 16:18:22;;;;;;;6.43;3.78;;;;;;;16.70;45.88;100703.28;8694974;33;20219;-75
2022/05/13 16:23:30;;;;;;;7.82;3.55;;;;;;;17.00;44.74;100698.38;8720531;33;20184;-76
2022/05/13 16:28:33;;;;;;;7.65;4.00;;;;;;;16.99;45.11;100707.53;8719914;33;20675;-76
2022/05/13 16:33:37;;;;;;;9.73;4.15;;;;;;;16.80;44.91;100703.16;8749934;33;20162;-76
2022/05/13 16:38:40;;;;;;;3.92;3.53;;;;;;;16.92;45.60;100696.50;8703904;33;20243;-77
2022/05/13 16:43:45;;;;;;;11.82;4.28;;;;;;;17.19;44.54;100697.34;8697797;33;20246;-77
2022/05/13 16:48:49;;;;;;;6.40;4.03;;;;;;;16.94;44.59;100704.47;8694974;33;20216;-77
2022/05/13 16:53:52;;;;;;;5.35;3.55;;;;;;;17.33;44.02;100704.91;8729776;33;20259;-76
2022/05/13 16:58:55;;;;;;;8.35;3.55;;;;;;;18.45;41.29;100703.81;8732488;33;20318;-76
2022/05/13 17:04:06;;;;;;;6.38;3.42;;;;;;;18.51;41.34;100696.84;8698528;33;20141;-77
2022/05/13 17:19:52;;;;;;;5.60;4.07;;;;;;;18.01;42.80;100703.22;8751880;33;20205;-77
2022/05/13 17:24:55;;;;;;;8.02;4.07;;;;;;;16.71;44.99;100704.13;8714286;33;20276;-77
2022/05/13 17:29:58;;;;;;;8.73;4.20;;;;;;;17.16;44.44;100709.38;8696923;33;20235;-77
2022/05/13 17:35:06;;;;;;;7.32;4.68;;;;;;;16.92;45.24;100707.34;8728744;33;20144;-76
2022/05/13 17:40:13;;;;;;;8.02;4.70;;;;;;;16.39;46.06;100718.22;8719085;33;20159;-77
2022/05/13 17:45:20;;;;;;;8.18;4.50;;;;;;;16.62;45.96;100705.91;8727616;33;20438;-77
2022/05/13 17:50:24;;;;;;;10.90;5.85;;;;;;;16.43;46.11;100706.03;8713395;33;20749;-76
2022/05/13 17:55:27;;;;;;;10.57;5.70;;;;;;;16.40;46.41;100704.53;8724897;33;20214;-77
2022/05/13 18:00:31;;;;;;;8.15;5.38;;;;;;;16.50;46.68;100702.56;8722435;33;20147;-77
2022/05/13 18:05:36;;;;;;;7.20;4.88;;;;;;;16.51;47.11;100709.72;8743097;33;20156;-77
2022/05/13 18:10:40;;;;;;;7.20;5.32;;;;;;;16.31;46.96;100708.13;8748943;33;20172;-76
2022/05/13 18:15:43;;;;;;;8.85;5.38;;;;;;;16.46;47.22;100703.91;8719547;33;20255;-77
2022/05/13 18:20:48;;;;;;;6.70;5.25;;;;;;;16.36;46.69;100697.69;8727281;33;20215;-75
2022/05/13 18:25:52;;;;;;;7.22;5.47;;;;;;;16.31;47.29;100708.97;8742613;33;20677;-76
2022/05/13 18:30:57;;;;;;;7.70;4.97;;;;;;;16.28;47.23;100714.72;8743217;33;20191;-75
2022/05/13 18:36:02;;;;;;;7.38;5.05;;;;;;;16.16;47.20;100705.09;8725336;33;20652;-77
2022/05/13 18:46:31;;;;;;;8.88;5.93;;;;;;;15.95;48.08;100699.94;8725918;33;20162;-77
2022/05/13 18:51:36;;;;;;;11.65;7.32;;;;;;;15.81;48.36;100704.00;8741199;33;20721;-77
2022/05/13 18:56:40;;;;;;;8.75;7.15;;;;;;;15.67;48.71;100696.38;8716465;33;20459;-77
2022/05/13 19:01:43;;;;;;;10.20;7.25;;;;;;;15.53;49.38;100699.59;8726788;33;20175;-77
2022/05/13 19:06:49;;;;;;;9.73;7.97;;;;;;;15.18;49.80;100699.25;8728530;33;20156;-77
2022/05/13 19:11:53;;;;;;;10.48;7.38;;;;;;;15.24;49.75;100708.63;8711848;33;20955;-77
2022/05/13 19:16:56;;;;;;;10.45;8.52;;;;;;;15.12;49.68;100716.06;8750167;33;20156;-77
2022/05/13 19:22:00;;;;;;;13.30;8.75;;;;;;;15.08;49.81;100730.03;8733011;33;20649;-77
2022/05/13 19:27:04;;;;;;;11.65;8.13;;;;;;;14.98;50.05;100714.66;8738395;33;20255;-76
2022/05/13 19:32:07;;;;;;;13.52;9.32;;;;;;;14.80;50.63;100716.38;8747706;33;20176;-76
2022/05/13 19:37:13;;;;;;;11.93;9.40;;;;;;;14.50;51.20;100731.75;8744034;33;20251;-75
2022/05/13 19:42:17;;;;;;;15.55;9.15;;;;;;;14.59;51.26;100732.78;8732236;33;20247;-76
2022/05/13 19:47:20;;;;;;;11.73;9.70;;;;;;;14.62;51.25;100746.03;8741713;33;20156;-77
2022/05/13 19:52:25;;;;;;;13.20;9.68;;;;;;;14.61;51.11;100744.28;8749048;33;20243;-76
2022/05/13 19:57:28;;;;;;;15.10;10.68;;;;;;;14.58;51.29;100744.56;8748604;33;20192;-77
2022/05/13 20:02:31;;;;;;;13.27;10.07;;;;;;;14.53;51.35;100752.25;8725751;33;20318;-77
2022/05/13 20:12:56;;;;;;;15.40;10.88;;;;;;;14.52;51.33;100753.25;8749074;33;20628;-73
2022/05/13 20:17:59;;;;;;;14.85;11.32;;;;;;;14.47;51.49;100756.38;8737063;33;20254;-72
2022/05/13 20:23:04;;;;;;;16.50;11.77;;;;;;;14.52;51.63;100753.25;8752650;33;21077;-73
2022/05/13 20:28:07;;;;;;;13.07;11.68;;;;;;;14.49;51.56;100753.53;8740249;33;20564;-72
2022/05/13 20:33:10;;;;;;;13.18;11.10;;;;;;;14.36;52.06;100762.72;8746003;33;20156;-72
2022/05/13 20:38:16;;;;;;;14.00;11.38;;;;;;;14.29;52.10;100761.59;8739827;33;20171;-73
2022/05/13 20:43:19;;;;;;;15.70;11.35;;;;;;;14.23;52.39;100759.44;8748256;33;20225;-72
2022/05/13 20:48:22;;;;;;;15.18;12.05;;;;;;;14.19;52.21;100767.97;8737271;33;21073;-72
2022/05/13 20:53:27;;;;;;;14.88;11.95;;;;;;;14.05;53.21;100772.75;8739829;33;20455;-72
2022/05/13 20:58:30;;;;;;;16.30;12.55;;;;;;;13.93;53.62;100777.44;8731212;33;20152;-73
2022/05/13 21:03:34;;;;;;;17.35;13.27;;;;;;;13.86;53.89;100776.25;8731971;33;20152;-72
2022/05/13 21:08:38;;;;;;;15.85;13.93;;;;;;;13.86;54.05;100770.84;8734897;33;20437;-73
2022/05/13 21:13:41;;;;;;;21.70;14.40;;;;;;;13.80;54.18;100784.06;8712357;33;20283;-72
2022/05/13 21:18:45;;;;;;;16.23;13.18;;;;;;;13.71;54.14;100791.97;8715663;33;20191;-72
2022/05/13 21:23:49;;;;;;;19.90;14.55;;;;;;;13.67;54.35;100786.97;8733549;33;20663;-73
2022/05/13 21:28:52;;;;;;;15.00;12.82;;;;;;;13.53;55.04;100782.78;8721130;33;20235;-73
2022/05/13 21:39:19;;;;;;;17.83;13.30;;;;;;;13.38;55.65;100790.34;8690843;33;20160;-73
2022/05/13 21:44:22;;;;;;;22.00;14.20;;;;;;;13.42;55.71;100794.50;8692075;33;20243;-73
2022/05/13 21:49:25;;;;;;;21.45;14.27;;;;;;;13.47;55.57;100788.72;8732386;33;20289;-72
2022/05/13 21:54:29;;;;;;;17.92;13.93;;;;;;;13.51;55.31;100792.84;8719410;33;20675;-73
2022/05/13 21:59:32;;;;;;;18.02;12.98;;;;;;;13.38;56.00;100789.50;8737241;33;20259;-73
2022/05/13 22:04:36;;;;;;;20.33;12.48;;;;;;;12.90;56.79;100793.53;8736941;33;20158;-72
2022/05/13 22:09:40;;;;;;;17.08;12.90;;;;;;;13.05;57.07;100794.06;8691382;33;20170;-73
2022/05/13 22:14:43;;;;;;;15.75;12.00;;;;;;;12.96;56.81;100795.72;8691630;33;20631;-72
2022/05/13 22:19:46;;;;;;;14.75;11.98;;;;;;;13.01;57.09;100795.34;8691138;33;20149;-73
2022/05/13 22:24:51;;;;;;;17.65;10.07;;;;;;;12.96;56.81;100797.56;8691361;33;20283;-73
2022/05/13 22:29:54;;;;;;;12.50;9.45;;;;;;;12.79;57.40;100797.13;8690783;33;20172;-71
2022/05/13 22:34:57;;;;;;;12.98;7.97;;;;;;;12.81;56.91;100799.72;8690997;33;20235;-71
2022/05/13 22:40:02;;;;;;;11.25;8.35;;;;;;;12.79;57.34;100797.13;8690568;33;20144;-71
2022/05/13 22:45:07;;;;;;;18.40;8.70;;;;;;;12.88;57.21;100802.75;8690561;33;20243;-72
2022/05/13 22:50:12;;;;;;;11.98;8.50;;;;;;;12.96;57.06;100802.94;8667958;33;20159;-72
2022/05/13 22:55:17;;;;;;;13.98;8.35;;;;;;;13.01;56.88;100795.34;8695748;33;20280;-71
2022/05/13 23:00:20;;;;;;;14.73;7.65;;;;;;;13.04;56.78;100786.97;8695135;33;20149;-72
2022/05/13 23:05:23;;;;;;;13.15;8.10;;;;;;;13.02;56.93;100791.63;8696867;33;20156;-71
2022/05/13 23:15:48;;;;;;;7.15;5.50;;;;;;;12.91;56.68;100803.34;8695042;33;20243;-72
2022/05/13 23:20:51;;;;;;;10.40;6.28;;;;;;;12.93;56.63;100805.91;8695042;33;20129;-71
2022/05/13 23:25:56;;;;;;;7.35;5.78;;;;;;;12.94;56.93;100807.63;8694943;33;20537;-72
2022/05/13 23:30:59;;;;;;;10.07;6.82;;;;;;;12.94;57.07;100818.41;8738562;33;20231;-72
2022/05/13 23:36:03;;;;;;;14.38;8.52;;;;;;;12.88;57.49;100805.44;8752807;33;20144;-72
2022/05/13 23:41:09;;;;;;;11.43;8.80;;;;;;;12.76;58.04;100802.78;8722776;33;20224;-72
2022/05/13 23:46:13;;;;;;;17.35;9.32;;;;;;;12.72;58.18;100812.09;8700433;33;20163;-72
2022/05/13 23:51:16;;;;;;;13.20;8.27;;;;;;;12.75;58.04;100808.28;8740387;33;20148;-71
2022/05/13 23:56:23;;;;;;;11.63;7.40;;;;;;;12.73;57.86;100803.06;8727906;33;20306;-72
